Time;durP1;ratioP1;P1;durP2;ratioP2;P2;SDS_P1;SDS_P2;PMS_P1;PMS_P2;Temp;Humidity;BMP_temperature;BMP_pressure;BME280_temperature;BME280_humidity;BME280_pressure;Samples;Min_cycle;Max_cycle;Signal;HPM_P1;HPM_P2
2022/07/20 00:00:29;;;;;;;6.70;3.00;;;24.50;45.50;;;;;;5072338;28;20111;-78
2022/07/20 00:02:55;;;;;;;10.52;2.67;;;24.40;45.70;;;;;;5055808;28;20111;-78
2022/07/20 00:05:21;;;;;;;9.00;2.63;;;24.30;45.60;;;;;;5060867;28;20028;-78
2022/07/20 00:07:46;;;;;;;14.95;3.28;;;24.20;46.30;;;;;;5069447;28;20123;-78
2022/07/20 00:12:56;;;;;;;10.60;3.80;;;24.10;47.10;;;;;;5064593;28;20055;-78
2022/07/20 00:15:21;;;;;;;7.43;2.58;;;24.00;48.10;;;;;;5057754;28;20365;-78
2022/07/20 00:17:47;;;;;;;5.38;2.50;;;24.00;48.10;;;;;;5063761;28;20480;-78
2022/07/20 00:20:12;;;;;;;3.63;2.30;;;23.90;47.70;;;;;;5063352;28;20032;-78
2022/07/20 00:22:38;;;;;;;6.65;2.33;;;24.00;47.80;;;;;;5059531;28;20149;-79
2022/07/20 00:25:04;;;;;;;4.20;2.38;;;23.90;47.70;;;;;;5054137;28;20025;-78
2022/07/20 00:27:31;;;;;;;6.68;2.70;;;23.90;47.90;;;;;;5061686;28;20071;-78
2022/07/20 00:29:56;;;;;;;10.40;2.88;;;23.90;47.90;;;;;;5053805;28;20033;-78
2022/07/20 00:32:22;;;;;;;6.13;3.00;;;23.90;47.70;;;;;;5060004;28;20023;-78
2022/07/20 00:34:47;;;;;;;5.63;2.45;;;23.90;48.50;;;;;;5070064;28;20028;-79
2022/07/20 00:37:13;;;;;;;5.40;2.80;;;23.90;47.60;;;;;;5069532;28;20021;-78
2022/07/20 00:39:38;;;;;;;5.90;2.78;;;23.90;48.20;;;;;;5061874;28;20029;-79
2022/07/20 00:42:04;;;;;;;7.25;2.42;;;23.90;47.80;;;;;;5060566;28;20091;-79
2022/07/20 00:44:29;;;;;;;9.93;3.33;;;23.90;48.40;;;;;;5054354;28;20025;-78
2022/07/20 00:46:55;;;;;;;7.80;3.22;;;23.80;49.10;;;;;;5053021;28;20116;-78
2022/07/20 00:49:21;;;;;;;7.78;3.08;;;23.70;49.30;;;;;;5056942;28;20039;-78
2022/07/20 00:51:48;;;;;;;9.88;2.72;;;23.70;49.60;;;;;;5064990;28;20077;-78
2022/07/20 00:54:14;;;;;;;10.65;3.10;;;23.50;50.10;;;;;;5052488;28;20413;-79
2022/07/20 00:56:40;;;;;;;8.70;3.08;;;23.40;49.90;;;;;;5066226;28;20085;-78
2022/07/20 00:59:08;;;;;;;11.32;3.17;;;23.30;49.70;;;;;;5072458;28;20032;-78
2022/07/20 01:01:35;;;;;;;8.20;2.80;;;23.20;50.10;;;;;;5071875;28;20028;-78
2022/07/20 01:04:01;;;;;;;6.60;2.88;;;23.10;50.10;;;;;;5068318;28;20033;-78
2022/07/20 01:06:28;;;;;;;9.63;3.22;;;23.00;50.30;;;;;;5057260;28;20025;-79
2022/07/20 01:08:54;;;;;;;5.05;2.33;;;22.90;51.20;;;;;;5052497;28;20465;-78
2022/07/20 01:11:20;;;;;;;3.17;2.10;;;22.80;51.80;;;;;;5068477;28;20032;-78
2022/07/20 01:13:45;;;;;;;9.13;3.13;;;22.60;52.10;;;;;;5067394;28;20032;-78
2022/07/20 01:16:12;;;;;;;7.15;2.65;;;22.60;53.40;;;;;;5056205;28;20029;-78
2022/07/20 01:18:38;;;;;;;6.05;3.00;;;22.50;54.00;;;;;;5057961;28;20021;-78
2022/07/20 01:21:06;;;;;;;5.80;2.92;;;22.50;53.90;;;;;;5071690;28;20028;-78
2022/07/20 01:23:31;;;;;;;5.05;2.40;;;22.40;54.40;;;;;;5068589;28;20017;-78
2022/07/20 01:25:58;;;;;;;9.43;2.90;;;22.40;54.60;;;;;;5052608;28;20112;-78
2022/07/20 01:28:24;;;;;;;8.13;2.63;;;22.30;55.20;;;;;;5050944;28;20028;-78
2022/07/20 01:30:50;;;;;;;5.18;2.60;;;22.30;55.70;;;;;;5056453;28;20095;-78
2022/07/20 01:33:18;;;;;;;6.75;3.05;;;22.20;56.30;;;;;;5065471;28;20031;-78
2022/07/20 01:35:44;;;;;;;4.72;2.40;;;22.20;56.50;;;;;;5055486;28;20025;-78
2022/07/20 01:38:09;;;;;;;10.45;3.25;;;22.10;56.20;;;;;;5064476;28;20070;-79
2022/07/20 01:40:36;;;;;;;2.97;2.35;;;22.10;56.20;;;;;;5051895;28;20040;-78
2022/07/20 01:43:02;;;;;;;11.07;3.33;;;22.10;56.70;;;;;;5051794;28;20027;-78
2022/07/20 01:45:27;;;;;;;9.32;2.95;;;22.00;57.10;;;;;;5052840;28;20112;-78
2022/07/20 01:47:53;;;;;;;9.82;2.72;;;22.00;56.80;;;;;;5067881;28;20028;-78
2022/07/20 01:50:19;;;;;;;16.27;2.80;;;21.90;57.60;;;;;;5052967;28;20069;-78
2022/07/20 01:52:45;;;;;;;5.90;3.17;;;21.90;57.50;;;;;;5055761;28;20420;-78
2022/07/20 01:55:10;;;;;;;6.20;2.88;;;21.90;58.40;;;;;;5050929;28;20100;-78
2022/07/20 01:57:36;;;;;;;6.57;3.08;;;21.90;58.30;;;;;;5060176;28;20530;-78
2022/07/20 02:00:05;;;;;;;6.90;3.30;;;21.80;58.50;;;;;;5066459;28;20491;-79
2022/07/20 02:02:30;;;;;;;6.55;2.67;;;21.80;58.60;;;;;;5059302;28;20032;-78
2022/07/20 02:04:56;;;;;;;8.43;3.17;;;21.80;59.70;;;;;;5065365;28;20025;-78
2022/07/20 02:07:21;;;;;;;8.55;2.90;;;21.70;60.20;;;;;;5065134;28;20048;-78
2022/07/20 02:09:47;;;;;;;8.45;3.20;;;21.70;61.20;;;;;;5065402;28;20037;-78
2022/07/20 02:12:12;;;;;;;7.85;2.78;;;21.60;62.50;;;;;;5069388;28;20056;-78
2022/07/20 02:14:38;;;;;;;8.23;2.72;;;21.60;63.90;;;;;;5058852;28;20029;-78
2022/07/20 02:17:03;;;;;;;6.65;3.67;;;21.60;65.30;;;;;;5060966;28;20032;-78
2022/07/20 02:19:29;;;;;;;5.70;3.00;;;21.50;65.60;;;;;;5057735;28;20036;-78
2022/07/20 02:21:54;;;;;;;5.88;2.80;;;21.50;66.50;;;;;;5062236;28;20035;-78
2022/07/20 02:24:20;;;;;;;6.20;2.67;;;21.50;67.80;;;;;;5054926;28;20042;-78
2022/07/20 02:26:45;;;;;;;9.25;3.20;;;21.40;68.80;;;;;;5068659;28;20041;-78
2022/07/20 02:29:11;;;;;;;15.40;3.25;;;21.40;69.00;;;;;;5064551;28;20028;-78
2022/07/20 02:31:36;;;;;;;6.78;3.00;;;21.40;70.60;;;;;;5062427;28;20032;-78
2022/07/20 02:34:02;;;;;;;17.05;3.60;;;21.30;71.40;;;;;;5052378;28;20021;-78
2022/07/20 02:36:27;;;;;;;11.55;2.70;;;21.40;64.40;;;;;;5057444;28;20021;-78
2022/07/20 02:38:53;;;;;;;9.38;3.35;;;21.60;66.30;;;;;;5052228;28;20036;-78
2022/07/20 02:41:18;;;;;;;9.07;3.38;;;21.70;67.70;;;;;;5054178;28;20040;-78
2022/07/20 02:43:44;;;;;;;6.90;2.83;;;21.80;63.80;;;;;;5064140;28;20044;-78
2022/07/20 02:46:09;;;;;;;10.05;2.60;;;22.00;61.40;;;;;;5055833;28;20029;-78
2022/07/20 02:48:35;;;;;;;13.45;3.58;;;22.20;59.00;;;;;;5067752;28;20067;-78
2022/07/20 02:51:01;;;;;;;13.50;4.07;;;22.60;55.70;;;;;;5056082;28;20041;-78
2022/07/20 02:53:26;;;;;;;6.88;2.78;;;23.10;53.40;;;;;;5054633;28;20052;-79
2022/07/20 02:55:52;;;;;;;7.60;3.65;;;23.40;53.00;;;;;;5057510;28;20033;-78
2022/07/20 02:58:18;;;;;;;6.13;2.65;;;23.60;51.50;;;;;;5059018;28;20029;-78
2022/07/20 03:00:46;;;;;;;13.05;3.20;;;23.90;50.30;;;;;;5064461;28;20113;-78
2022/07/20 03:03:11;;;;;;;7.07;2.90;;;24.20;49.20;;;;;;5068213;28;20209;-78
2022/07/20 03:05:38;;;;;;;6.47;2.55;;;24.30;48.50;;;;;;5061254;28;20136;-78
2022/07/20 03:08:06;;;;;;;7.38;2.95;;;24.50;48.50;;;;;;5065714;28;20103;-78
2022/07/20 03:10:32;;;;;;;6.20;2.72;;;24.60;47.30;;;;;;5055726;28;20025;-78
2022/07/20 03:12:57;;;;;;;5.47;2.55;;;24.60;47.50;;;;;;5071459;28;20049;-78
2022/07/20 03:15:23;;;;;;;13.93;3.63;;;24.70;47.30;;;;;;5070181;28;20029;-78
2022/07/20 03:17:51;;;;;;;9.43;2.80;;;24.70;46.60;;;;;;5064064;28;20021;-79
2022/07/20 03:20:26;;;;;;;14.45;3.75;;;24.90;46.10;;;;;;5061309;28;20110;-78
2022/07/20 03:22:53;;;;;;;9.30;2.90;;;25.00;46.20;;;;;;5069600;28;20033;-78
2022/07/20 03:25:19;;;;;;;8.05;2.63;;;25.00;45.90;;;;;;5054785;28;20469;-78
2022/07/20 03:27:44;;;;;;;18.60;4.13;;;25.10;45.10;;;;;;5069816;28;20024;-78
2022/07/20 03:30:11;;;;;;;15.02;3.92;;;25.20;44.70;;;;;;5068969;28;20465;-78
2022/07/20 03:32:37;;;;;;;10.18;3.35;;;25.30;44.70;;;;;;5057674;28;20032;-78
2022/07/20 03:35:03;;;;;;;14.07;3.25;;;25.40;44.30;;;;;;5065761;28;20476;-79
2022/07/20 03:37:29;;;;;;;18.55;4.30;;;25.50;44.20;;;;;;5060710;28;20381;-78
2022/07/20 03:39:55;;;;;;;12.43;4.03;;;25.50;44.00;;;;;;5061531;28;20036;-78
2022/07/20 03:42:23;;;;;;;8.00;3.35;;;25.50;44.20;;;;;;5058628;28;20033;-78
2022/07/20 03:44:50;;;;;;;9.82;3.45;;;25.50;44.10;;;;;;5056564;28;20028;-78
2022/07/20 03:47:15;;;;;;;6.63;4.07;;;25.60;44.00;;;;;;5065512;28;20032;-78
2022/07/20 03:49:41;;;;;;;15.40;3.42;;;25.70;43.60;;;;;;5058300;28;20040;-79
2022/07/20 03:52:06;;;;;;;6.50;3.10;;;25.70;43.60;;;;;;5080130;28;20028;-79
2022/07/20 03:54:32;;;;;;;15.15;3.25;;;25.70;43.80;;;;;;5058267;28;20107;-78
2022/07/20 03:56:57;;;;;;;12.82;3.15;;;25.80;43.60;;;;;;5059262;28;20037;-79
2022/07/20 03:59:23;;;;;;;18.42;3.65;;;25.90;43.20;;;;;;5062687;28;20107;-78
2022/07/20 04:01:48;;;;;;;7.35;3.10;;;26.00;43.30;;;;;;5064370;28;20029;-78
2022/07/20 04:04:14;;;;;;;15.40;3.30;;;26.10;43.60;;;;;;5054188;28;20393;-79
2022/07/20 04:06:40;;;;;;;8.68;2.72;;;26.00;44.40;;;;;;5072131;28;20031;-78
2022/07/20 04:09:05;;;;;;;5.60;3.05;;;26.10;44.00;;;;;;5062897;28;20033;-79
2022/07/20 04:11:32;;;;;;;4.18;2.42;;;26.00;44.60;;;;;;5054320;28;20041;-79
2022/07/20 04:13:58;;;;;;;12.60;3.15;;;26.00;44.90;;;;;;5054611;28;20075;-78
2022/07/20 04:16:25;;;;;;;11.63;2.95;;;26.00;44.70;;;;;;5054335;28;20170;-79
2022/07/20 04:18:50;;;;;;;8.73;3.03;;;26.10;44.70;;;;;;5056726;28;20025;-79
2022/07/20 04:21:16;;;;;;;5.78;3.10;;;26.20;44.90;;;;;;5052624;28;20033;-79
2022/07/20 04:23:43;;;;;;;7.57;3.30;;;26.20;45.20;;;;;;5054151;28;20566;-79
2022/07/20 04:26:08;;;;;;;9.65;3.17;;;26.10;45.80;;;;;;5054148;28;20100;-78
2022/07/20 04:28:34;;;;;;;9.65;2.88;;;26.10;46.10;;;;;;5055055;28;20171;-78
2022/07/20 04:30:59;;;;;;;4.50;2.22;;;26.00;45.70;;;;;;5056157;28;20033;-78
2022/07/20 04:33:25;;;;;;;7.85;3.40;;;26.10;46.20;;;;;;5054011;28;20373;-78
2022/07/20 04:35:51;;;;;;;13.30;3.03;;;26.10;46.20;;;;;;5054373;28;20108;-79
2022/07/20 04:38:17;;;;;;;4.53;2.55;;;26.10;47.20;;;;;;5053438;28;20028;-79
2022/07/20 04:40:44;;;;;;;5.45;2.65;;;26.10;47.50;;;;;;5052248;28;20373;-79
2022/07/20 04:43:09;;;;;;;6.63;3.00;;;26.00;48.70;;;;;;5055265;28;20528;-79
2022/07/20 04:45:35;;;;;;;6.60;2.80;;;25.80;49.60;;;;;;5054885;28;20135;-79
2022/07/20 04:48:02;;;;;;;6.20;3.22;;;25.70;49.70;;;;;;5069338;28;20033;-79
2022/07/20 04:50:28;;;;;;;5.35;3.00;;;25.60;50.00;;;;;;5063409;28;20025;-79
2022/07/20 04:52:53;;;;;;;7.80;2.42;;;25.50;50.20;;;;;;5064892;28;20177;-79
2022/07/20 04:55:19;;;;;;;9.25;3.38;;;25.40;51.40;;;;;;5058944;28;20035;-79
2022/07/20 04:57:44;;;;;;;6.93;2.78;;;25.30;52.90;;;;;;5071067;28;20074;-79
2022/07/20 05:00:11;;;;;;;8.88;3.38;;;25.10;53.10;;;;;;5059212;28;20533;-79
2022/07/20 05:02:36;;;;;;;9.57;2.90;;;25.10;54.00;;;;;;5053075;28;20481;-79
2022/07/20 05:05:02;;;;;;;7.28;2.70;;;25.00;55.30;;;;;;5055026;28;20040;-79
2022/07/20 05:07:27;;;;;;;10.02;3.50;;;24.90;55.80;;;;;;5053322;28;20048;-79
2022/07/20 05:09:53;;;;;;;11.07;3.58;;;24.80;58.10;;;;;;5053446;28;20025;-79
2022/07/20 05:12:20;;;;;;;8.27;2.88;;;24.80;59.50;;;;;;5052851;28;20049;-79
2022/07/20 05:14:45;;;;;;;5.45;3.33;;;24.90;59.30;;;;;;5059814;28;20028;-79
2022/07/20 05:17:11;;;;;;;8.98;3.28;;;24.90;62.00;;;;;;5073402;28;20080;-79
2022/07/20 05:19:36;;;;;;;3.95;2.30;;;25.00;64.50;;;;;;5057669;28;20035;-79
2022/07/20 05:22:02;;;;;;;13.75;5.47;;;25.10;64.10;;;;;;5054240;28;20071;-79
2022/07/20 05:24:27;;;;;;;5.97;3.10;;;25.20;67.70;;;;;;5073136;28;20031;-79
2022/07/20 05:26:53;;;;;;;9.20;3.60;;;25.20;62.50;;;;;;5061145;28;20029;-79
2022/07/20 05:29:18;;;;;;;11.75;3.45;;;25.30;59.80;;;;;;5065052;28;20036;-79
2022/07/20 05:31:44;;;;;;;13.52;3.15;;;25.40;61.60;;;;;;5055342;28;20059;-79
2022/07/20 05:34:09;;;;;;;4.53;2.83;;;25.50;56.40;;;;;;5052588;28;20029;-79
2022/07/20 05:36:35;;;;;;;12.18;2.72;;;25.70;56.40;;;;;;5052468;28;20033;-79
2022/07/20 05:39:00;;;;;;;11.65;3.10;;;25.90;60.80;;;;;;5052797;28;20049;-79
2022/07/20 05:41:26;;;;;;;4.07;2.88;;;26.00;57.60;;;;;;5061157;28;20032;-79
2022/07/20 05:43:52;;;;;;;5.40;2.78;;;26.10;57.30;;;;;;5068651;28;20021;-79
2022/07/20 05:46:18;;;;;;;6.75;3.20;;;26.20;55.60;;;;;;5060332;28;20028;-79
2022/07/20 05:48:44;;;;;;;7.95;3.08;;;26.30;52.80;;;;;;5070804;28;20027;-79
2022/07/20 05:51:09;;;;;;;7.55;3.65;;;26.40;52.70;;;;;;5052698;28;20464;-79
2022/07/20 05:53:35;;;;;;;6.50;3.20;;;26.50;51.80;;;;;;5052267;28;20036;-79
2022/07/20 05:56:00;;;;;;;6.65;3.22;;;26.60;51.50;;;;;;5063731;28;20048;-79
2022/07/20 05:58:26;;;;;;;6.85;2.88;;;26.70;50.90;;;;;;5070398;28;20114;-79
2022/07/20 06:00:51;;;;;;;6.25;2.85;;;26.80;51.40;;;;;;5060035;28;20484;-79
2022/07/20 06:03:17;;;;;;;6.78;2.42;;;26.90;50.80;;;;;;5050888;28;20021;-79
2022/07/20 06:05:42;;;;;;;6.80;2.75;;;27.00;50.20;;;;;;5052651;28;20365;-79
2022/07/20 06:08:08;;;;;;;6.55;2.90;;;27.00;50.00;;;;;;5058757;28;20551;-79
2022/07/20 06:10:36;;;;;;;6.47;3.42;;;27.10;49.20;;;;;;5069690;28;20349;-79
2022/07/20 06:13:03;;;;;;;7.18;3.08;;;27.30;48.50;;;;;;5052396;28;20045;-79
2022/07/20 06:15:29;;;;;;;7.60;3.08;;;27.50;49.10;;;;;;5051691;28;20104;-80
2022/07/20 06:17:55;;;;;;;9.30;3.03;;;27.70;47.80;;;;;;5053423;28;20112;-79
2022/07/20 06:20:22;;;;;;;7.95;2.65;;;27.80;47.60;;;;;;5060302;28;20518;-79
2022/07/20 06:22:49;;;;;;;7.25;2.72;;;27.90;48.40;;;;;;5064642;28;20394;-79
2022/07/20 06:25:16;;;;;;;5.88;2.47;;;28.00;48.00;;;;;;5067725;28;20491;-79
2022/07/20 06:27:43;;;;;;;16.75;3.15;;;28.20;46.40;;;;;;5059510;28;20036;-79
2022/07/20 06:30:10;;;;;;;7.47;2.42;;;28.30;47.30;;;;;;5059851;28;20028;-79
2022/07/20 06:32:36;;;;;;;17.73;2.88;;;28.30;46.80;;;;;;5067947;28;20457;-79
2022/07/20 06:35:02;;;;;;;14.00;3.67;;;28.40;46.20;;;;;;5058415;28;20021;-79
2022/07/20 06:37:28;;;;;;;11.32;2.40;;;28.50;46.40;;;;;;5058867;28;20110;-79
2022/07/20 06:39:55;;;;;;;8.35;2.90;;;28.50;46.60;;;;;;5056594;28;20064;-79
2022/07/20 06:42:20;;;;;;;8.85;2.70;;;28.50;45.90;;;;;;5056280;28;20044;-79
2022/07/20 06:44:46;;;;;;;8.95;3.13;;;28.70;45.40;;;;;;5058796;28;20029;-79
2022/07/20 06:47:12;;;;;;;4.68;2.92;;;28.80;45.00;;;;;;5063655;28;20464;-79
2022/07/20 06:49:39;;;;;;;5.97;2.80;;;29.00;44.90;;;;;;5061704;28;20434;-79
2022/07/20 06:52:04;;;;;;;7.00;2.58;;;29.00;44.40;;;;;;5056173;28;20108;-79
2022/07/20 06:54:30;;;;;;;6.40;2.55;;;29.20;43.90;;;;;;5055939;28;20184;-80
2022/07/20 06:56:57;;;;;;;7.05;2.60;;;29.30;43.80;;;;;;5069623;28;20028;-79
2022/07/20 06:59:23;;;;;;;6.60;2.85;;;29.30;43.60;;;;;;5071228;28;20028;-79
2022/07/20 07:01:48;;;;;;;14.27;2.80;;;29.40;42.90;;;;;;5070265;28;20377;-79
2022/07/20 07:04:14;;;;;;;11.32;2.15;;;29.40;42.70;;;;;;5059278;28;20041;-79
2022/07/20 07:06:39;;;;;;;6.60;2.63;;;29.50;41.70;;;;;;5072712;28;20033;-79
2022/07/20 07:09:05;;;;;;;5.20;2.47;;;29.60;41.30;;;;;;5075686;28;20067;-79
2022/07/20 07:11:31;;;;;;;15.75;3.00;;;29.70;41.00;;;;;;5075446;28;20043;-79
2022/07/20 07:13:59;;;;;;;7.57;2.63;;;29.80;39.70;;;;;;5074542;28;20032;-78
2022/07/20 07:16:27;;;;;;;8.57;2.78;;;29.90;41.00;;;;;;5062291;28;20029;-79
2022/07/20 07:18:53;;;;;;;12.13;2.70;;;29.90;40.30;;;;;;5075032;28;20440;-79
2022/07/20 07:21:18;;;;;;;12.40;2.83;;;30.00;39.30;;;;;;5055365;28;20035;-79
2022/07/20 07:23:49;;;;;;;4.32;2.40;;;30.10;38.30;;;;;;5055916;28;20477;-79
2022/07/20 07:26:18;;;;;;;9.57;2.60;;;30.20;39.00;;;;;;5071785;28;20032;-79
2022/07/20 07:28:45;;;;;;;17.25;3.03;;;30.30;38.50;;;;;;5062581;28;20041;-80
2022/07/20 07:31:10;;;;;;;8.43;2.70;;;30.30;39.40;;;;;;5072417;28;20048;-79
2022/07/20 07:33:37;;;;;;;12.15;3.22;;;30.30;40.10;;;;;;5074911;28;20468;-79
2022/07/20 07:36:04;;;;;;;9.65;2.65;;;30.30;39.90;;;;;;5060622;28;20017;-80
2022/07/20 07:38:31;;;;;;;4.75;2.72;;;30.40;39.50;;;;;;5069706;28;20048;-79
2022/07/20 07:40:56;;;;;;;10.43;2.85;;;30.50;39.80;;;;;;5061257;28;20040;-79
2022/07/20 07:43:22;;;;;;;9.40;2.92;;;30.50;39.60;;;;;;5065265;28;20028;-80
2022/07/20 07:45:47;;;;;;;6.15;2.58;;;30.50;39.10;;;;;;5073400;28;20420;-80
2022/07/20 07:48:13;;;;;;;3.20;2.10;;;30.50;38.80;;;;;;5061019;28;20029;-80
2022/07/20 07:50:40;;;;;;;7.03;3.00;;;30.60;38.30;;;;;;5070154;28;20083;-79
2022/07/20 07:53:07;;;;;;;4.13;2.30;;;30.60;38.50;;;;;;5074779;28;20385;-79
2022/07/20 07:55:37;;;;;;;7.75;3.10;;;30.60;38.10;;;;;;5066349;28;20028;-79
2022/07/20 07:58:03;;;;;;;7.47;2.50;;;30.60;39.10;;;;;;5069062;28;20056;-80
2022/07/20 08:00:29;;;;;;;15.05;2.97;;;30.70;39.10;;;;;;5074471;28;20143;-79
2022/07/20 08:02:54;;;;;;;10.55;2.53;;;30.70;38.30;;;;;;5056376;28;20108;-79
2022/07/20 08:05:20;;;;;;;6.63;2.42;;;30.80;38.30;;;;;;5056825;28;20146;-79
2022/07/20 08:07:46;;;;;;;8.18;2.60;;;30.80;37.50;;;;;;5058521;28;20025;-80
2022/07/20 08:10:13;;;;;;;10.63;2.95;;;30.90;37.30;;;;;;5068495;28;20038;-80
2022/07/20 08:12:39;;;;;;;7.63;2.63;;;30.90;36.90;;;;;;5071388;28;20123;-79
2022/07/20 08:15:06;;;;;;;9.10;2.50;;;31.00;35.90;;;;;;5064210;28;20121;-79
2022/07/20 08:17:32;;;;;;;7.68;2.72;;;31.10;35.30;;;;;;5059960;28;20360;-79
2022/07/20 08:19:58;;;;;;;8.43;2.72;;;31.20;35.40;;;;;;5069668;28;20040;-79
2022/07/20 08:22:23;;;;;;;6.18;2.67;;;31.30;34.60;;;;;;5070459;28;20020;-80
2022/07/20 08:24:49;;;;;;;7.80;2.70;;;31.40;35.70;;;;;;5055164;28;20036;-79
2022/07/20 08:27:15;;;;;;;12.07;2.78;;;31.40;35.30;;;;;;5065163;28;20421;-79
2022/07/20 08:29:41;;;;;;;11.27;2.92;;;31.50;35.30;;;;;;5057380;28;20097;-80
2022/07/20 08:32:06;;;;;;;13.13;2.55;;;31.50;35.30;;;;;;5058427;28;20025;-80
2022/07/20 08:34:32;;;;;;;6.65;2.92;;;31.60;35.10;;;;;;5074034;28;20024;-80
2022/07/20 08:36:57;;;;;;;10.65;2.50;;;31.60;34.00;;;;;;5065502;28;20021;-80
2022/07/20 08:39:25;;;;;;;14.32;3.53;;;31.70;34.40;;;;;;5061878;28;20024;-80
2022/07/20 08:41:50;;;;;;;18.63;2.92;;;31.70;34.60;;;;;;5067489;28;20033;-80
2022/07/20 08:44:16;;;;;;;5.15;2.17;;;31.80;33.90;;;;;;5059060;28;20405;-80
2022/07/20 08:46:44;;;;;;;16.63;2.88;;;31.80;34.30;;;;;;5057232;28;20032;-79
2022/07/20 08:49:11;;;;;;;11.95;2.90;;;32.00;34.90;;;;;;5067982;28;20043;-80
2022/07/20 08:51:37;;;;;;;11.68;2.75;;;32.00;34.00;;;;;;5057911;28;20029;-80
2022/07/20 08:54:03;;;;;;;5.88;2.95;;;32.00;32.70;;;;;;5056604;28;20028;-80
2022/07/20 08:56:29;;;;;;;7.72;3.33;;;31.90;33.80;;;;;;5053472;28;20029;-80
2022/07/20 08:58:56;;;;;;;8.80;4.07;;;31.90;33.30;;;;;;5065005;28;20032;-79
2022/07/20 09:01:21;;;;;;;13.65;3.50;;;31.90;32.90;;;;;;5055461;28;20024;-79
2022/07/20 09:04:11;;;;;;;12.70;4.10;;;31.90;33.10;;;;;;5053939;28;20039;-79
2022/07/20 09:06:50;;;;;;;9.40;3.63;;;31.90;33.00;;;;;;5066332;28;20032;-80
2022/07/20 09:09:17;;;;;;;7.78;2.97;;;31.80;32.90;;;;;;5073435;28;20063;-80
2022/07/20 09:11:43;;;;;;;12.50;4.10;;;31.80;33.00;;;;;;5072964;28;20071;-80
2022/07/20 09:14:09;;;;;;;7.28;3.42;;;31.80;33.40;;;;;;5072963;28;20025;-80
2022/07/20 09:16:48;;;;;;;11.02;3.95;;;31.80;33.70;;;;;;5073188;28;20033;-80
2022/07/20 09:19:15;;;;;;;11.38;3.22;;;31.90;33.90;;;;;;5073241;28;20012;-80
2022/07/20 09:21:42;;;;;;;13.20;3.83;;;32.00;32.90;;;;;;5071830;28;20166;-80
2022/07/20 09:24:10;;;;;;;10.57;4.10;;;32.00;32.60;;;;;;5073121;28;20178;-80
2022/07/20 09:26:36;;;;;;;8.10;4.03;;;32.20;32.50;;;;;;5073104;28;20033;-80
2022/07/20 09:29:05;;;;;;;8.07;3.42;;;32.20;32.20;;;;;;5072571;28;20103;-80
2022/07/20 09:31:33;;;;;;;9.63;4.40;;;32.30;32.40;;;;;;5071496;28;20020;-80
2022/07/20 09:34:07;;;;;;;16.23;4.25;;;32.40;32.20;;;;;;5058727;28;20027;-80
2022/07/20 09:36:39;;;;;;;7.15;3.20;;;32.40;30.90;;;;;;5055388;28;20029;-80
2022/07/20 09:39:20;;;;;;;7.20;3.53;;;32.50;32.10;;;;;;5082185;28;20036;-80
2022/07/20 09:41:56;;;;;;;9.10;3.58;;;32.60;31.20;;;;;;5077939;28;20013;-80
2022/07/20 09:44:27;;;;;;;9.25;3.38;;;32.60;32.00;;;;;;5054852;28;20025;-80
2022/07/20 09:46:53;;;;;;;11.43;3.60;;;32.70;32.10;;;;;;5053554;28;20040;-80
2022/07/20 09:49:21;;;;;;;15.07;5.00;;;32.70;31.30;;;;;;5052784;28;20031;-80
2022/07/20 09:51:57;;;;;;;10.20;3.90;;;32.70;30.20;;;;;;5053744;28;20029;-80
2022/07/20 09:54:23;;;;;;;15.02;3.80;;;32.80;30.40;;;;;;5070318;28;20060;-80
2022/07/20 09:56:50;;;;;;;11.80;3.55;;;32.80;30.70;;;;;;5059868;28;20469;-80
2022/07/20 09:59:18;;;;;;;8.05;3.70;;;32.90;30.60;;;;;;5051978;28;20469;-80
2022/07/20 10:01:52;;;;;;;17.13;3.22;;;32.90;29.60;;;;;;5053032;28;20031;-80
2022/07/20 10:04:18;;;;;;;11.77;3.05;;;33.00;29.60;;;;;;5052614;28;20064;-79
2022/07/20 10:06:47;;;;;;;12.15;3.60;;;33.00;29.70;;;;;;5052765;28;20064;-79
2022/07/20 10:09:17;;;;;;;9.57;3.10;;;33.10;30.00;;;;;;5052866;28;20029;-79
2022/07/20 10:11:43;;;;;;;8.85;3.80;;;33.10;30.40;;;;;;5052214;28;20511;-80
2022/07/20 10:14:10;;;;;;;8.15;3.72;;;33.10;29.70;;;;;;5051754;28;20476;-80
2022/07/20 10:16:52;;;;;;;12.40;2.97;;;33.30;29.90;;;;;;5051954;28;20170;-80
2022/07/20 10:19:21;;;;;;;9.93;2.78;;;33.40;29.50;;;;;;5053492;28;20041;-80
2022/07/20 10:21:51;;;;;;;15.80;4.13;;;33.50;29.30;;;;;;5052226;28;20036;-80
2022/07/20 10:24:30;;;;;;;8.65;2.95;;;33.50;29.50;;;;;;5052687;28;20475;-80
2022/07/20 10:27:08;;;;;;;6.72;3.17;;;33.50;29.50;;;;;;5053388;28;20025;-79
2022/07/20 10:29:41;;;;;;;10.18;3.45;;;33.40;29.20;;;;;;5053427;28;20033;-79
2022/07/20 10:32:09;;;;;;;7.72;3.55;;;33.40;29.80;;;;;;5071810;28;20045;-80
2022/07/20 10:34:45;;;;;;;6.45;3.03;;;33.40;30.10;;;;;;5072186;28;20028;-79
2022/07/20 10:37:39;;;;;;;11.60;2.63;;;33.40;30.00;;;;;;5072510;28;20106;-79
2022/07/20 10:40:09;;;;;;;7.88;3.20;;;33.40;30.30;;;;;;5072468;28;20036;-79
2022/07/20 10:42:46;;;;;;;8.70;3.00;;;33.50;30.20;;;;;;5072345;28;20388;-80
2022/07/20 10:45:15;;;;;;;10.85;3.15;;;33.50;30.30;;;;;;5071868;28;20108;-79
2022/07/20 10:47:55;;;;;;;11.55;2.85;;;33.50;30.50;;;;;;5070865;28;20025;-79
2022/07/20 10:50:23;;;;;;;10.30;2.90;;;33.50;30.00;;;;;;5072069;28;20025;-80
2022/07/20 10:52:54;;;;;;;12.30;3.22;;;33.60;30.00;;;;;;5072268;28;20726;-80
2022/07/20 10:55:50;;;;;;;9.52;2.85;;;33.70;29.40;;;;;;5072205;28;20021;-80
2022/07/20 10:58:18;;;;;;;7.82;3.10;;;33.70;29.40;;;;;;5072218;28;20048;-80
2022/07/20 11:00:50;;;;;;;8.75;2.47;;;33.80;29.20;;;;;;5070648;28;20389;-79
2022/07/20 11:03:29;;;;;;;16.70;3.13;;;33.90;29.00;;;;;;5073635;28;20108;-79
2022/07/20 11:06:10;;;;;;;10.10;3.10;;;34.00;29.10;;;;;;5075962;28;20052;-80
2022/07/20 11:08:57;;;;;;;7.68;3.03;;;34.00;29.30;;;;;;5075593;28;20048;-79
2022/07/20 11:11:27;;;;;;;12.75;2.95;;;34.10;30.10;;;;;;5075080;28;20047;-80
2022/07/20 11:13:53;;;;;;;7.43;2.90;;;34.30;30.10;;;;;;5075219;28;20020;-79
2022/07/20 11:16:21;;;;;;;7.45;3.15;;;34.30;29.60;;;;;;5074388;28;20023;-79
2022/07/20 11:18:48;;;;;;;10.07;3.15;;;34.30;29.50;;;;;;5074155;28;20055;-79
2022/07/20 11:21:14;;;;;;;8.43;2.88;;;34.40;28.10;;;;;;5075566;28;20028;-80
2022/07/20 11:23:48;;;;;;;8.35;3.25;;;34.50;29.20;;;;;;5075262;28;20460;-79
2022/07/20 11:26:19;;;;;;;10.57;2.67;;;34.40;29.70;;;;;;5075562;28;20487;-80
2022/07/20 11:28:48;;;;;;;8.80;2.88;;;34.40;29.50;;;;;;5073536;28;20036;-80
2022/07/20 11:31:16;;;;;;;6.88;2.30;;;34.40;28.80;;;;;;5075161;28;20028;-80
2022/07/20 11:33:47;;;;;;;6.15;2.72;;;34.30;28.90;;;;;;5075059;28;20017;-80
2022/07/20 11:36:15;;;;;;;7.45;2.95;;;34.30;28.90;;;;;;5074006;28;20468;-80
2022/07/20 11:38:44;;;;;;;11.05;2.92;;;34.30;28.40;;;;;;5075147;28;20023;-80
2022/07/20 11:41:16;;;;;;;5.90;2.20;;;34.30;28.60;;;;;;5075250;28;20020;-80
2022/07/20 11:43:41;;;;;;;11.80;2.67;;;34.30;28.40;;;;;;5074534;28;20021;-80
2022/07/20 11:46:21;;;;;;;9.52;2.33;;;34.40;28.20;;;;;;5075118;28;20032;-80
2022/07/20 11:48:52;;;;;;;11.80;3.05;;;34.40;28.40;;;;;;5075093;28;20416;-79
2022/07/20 11:51:18;;;;;;;8.52;3.13;;;34.60;28.70;;;;;;5074886;28;20456;-80
2022/07/20 11:53:43;;;;;;;12.77;2.63;;;34.60;28.10;;;;;;5074787;28;20029;-80
2022/07/20 11:56:15;;;;;;;16.83;2.92;;;34.60;27.90;;;;;;5071029;28;20052;-80
2022/07/20 11:58:44;;;;;;;10.82;2.78;;;34.70;28.00;;;;;;5066495;28;20119;-80
2022/07/20 12:01:18;;;;;;;8.02;3.05;;;34.70;27.90;;;;;;5059673;28;20050;-80
2022/07/20 12:03:50;;;;;;;14.65;3.28;;;34.70;27.60;;;;;;5054105;28;20051;-80
2022/07/20 12:06:16;;;;;;;10.10;2.70;;;34.70;27.90;;;;;;5055849;28;20056;-80
2022/07/20 12:08:42;;;;;;;6.88;2.85;;;34.80;27.80;;;;;;5062182;28;20067;-80
2022/07/20 12:11:09;;;;;;;11.43;2.90;;;34.80;27.90;;;;;;5055864;28;20373;-80
2022/07/20 12:13:45;;;;;;;9.05;3.17;;;34.80;27.40;;;;;;5061913;28;20498;-79
2022/07/20 12:16:11;;;;;;;8.15;2.95;;;34.90;27.80;;;;;;5056847;28;20025;-80
2022/07/20 12:18:45;;;;;;;10.27;2.80;;;34.90;27.40;;;;;;5061558;28;20041;-80
2022/07/20 12:21:14;;;;;;;8.13;2.50;;;34.90;27.40;;;;;;5054838;28;20052;-80
2022/07/20 12:23:45;;;;;;;8.25;2.78;;;34.90;27.20;;;;;;5052286;28;20123;-80
2022/07/20 12:26:26;;;;;;;6.60;2.47;;;35.10;27.20;;;;;;5069380;28;20090;-80
2022/07/20 12:28:55;;;;;;;8.10;2.85;;;35.10;27.30;;;;;;5066186;28;20037;-80
2022/07/20 12:31:22;;;;;;;15.30;2.72;;;35.10;26.70;;;;;;5061485;28;20021;-80
2022/07/20 12:34:08;;;;;;;8.90;2.50;;;35.10;26.60;;;;;;5060029;28;20052;-80
2022/07/20 12:36:48;;;;;;;5.43;2.95;;;35.10;26.50;;;;;;5060060;28;20060;-80
2022/07/20 12:39:34;;;;;;;13.45;2.67;;;35.00;26.30;;;;;;5055125;28;20978;-80
2022/07/20 12:42:19;;;;;;;12.45;2.45;;;35.00;26.20;;;;;;5064895;28;20052;-80
2022/07/20 12:44:49;;;;;;;8.95;3.15;;;34.90;26.20;;;;;;5055358;28;20082;-79
2022/07/20 12:47:16;;;;;;;11.48;2.63;;;34.90;26.50;;;;;;5057156;28;20040;-79